Time;durP1;ratioP1;P1;durP2;ratioP2;P2;SDS_P1;SDS_P2;PMS_P1;PMS_P2;Temp;Humidity;BMP_temperature;BMP_pressure;BME280_temperature;BME280_humidity;BME280_pressure;Samples;Min_cycle;Max_cycle;Signal;HPM_P1;HPM_P2
2023/01/15 00:00:26;;;;;;;15.23;2.53;;;8.60;99.90;;;;;;6303687;22;39245;-77
2023/01/15 00:02:55;;;;;;;20.83;3.33;;;8.70;99.90;;;;;;6307733;22;37310;-77
2023/01/15 00:05:21;;;;;;;13.97;2.10;;;8.60;99.90;;;;;;6301672;22;39313;-78
2023/01/15 00:07:48;;;;;;;21.50;3.10;;;8.60;99.90;;;;;;6307549;22;37444;-77
2023/01/15 00:10:15;;;;;;;13.43;2.70;;;8.60;99.90;;;;;;6303479;22;38565;-77
2023/01/15 00:12:41;;;;;;;19.30;2.37;;;8.60;99.90;;;;;;6303966;22;35960;-77
2023/01/15 00:15:07;;;;;;;13.07;1.90;;;8.60;99.90;;;;;;6300872;22;37975;-78
2023/01/15 00:17:33;;;;;;;17.63;2.90;;;8.60;99.90;;;;;;6307478;22;39276;-78
2023/01/15 00:19:59;;;;;;;15.13;2.90;;;8.60;99.90;;;;;;6308520;22;37963;-77
2023/01/15 00:22:25;;;;;;;15.00;2.50;;;8.60;99.90;;;;;;6302866;22;36173;-78
2023/01/15 00:27:39;;;;;;;19.17;2.47;;;8.60;99.90;;;;;;6300380;22;49633;-78
2023/01/15 00:30:07;;;;;;;16.00;2.50;;;8.50;99.90;;;;;;6306751;22;38897;-77
2023/01/15 00:32:33;;;;;;;18.17;1.93;;;8.60;99.90;;;;;;6303068;22;47582;-77
2023/01/15 00:35:00;;;;;;;14.93;2.43;;;8.60;99.90;;;;;;6305317;22;37840;-77
2023/01/15 00:37:26;;;;;;;15.50;2.20;;;8.60;99.90;;;;;;6301503;22;37260;-78
2023/01/15 00:39:52;;;;;;;16.80;2.60;;;8.50;99.90;;;;;;6306542;22;36932;-78
2023/01/15 00:42:18;;;;;;;15.17;1.83;;;8.50;99.90;;;;;;6304715;22;37918;-77
2023/01/15 00:44:45;;;;;;;18.33;2.63;;;8.50;99.90;;;;;;6304111;22;37499;-78
2023/01/15 00:47:14;;;;;;;15.10;2.27;;;8.40;99.90;;;;;;6302373;22;37954;-78
2023/01/15 00:49:41;;;;;;;12.83;2.00;;;8.50;99.90;;;;;;6304270;22;37629;-78
2023/01/15 00:52:08;;;;;;;11.47;1.90;;;8.40;99.90;;;;;;6304077;22;36041;-78
2023/01/15 00:54:34;;;;;;;15.17;2.57;;;8.40;99.90;;;;;;6304011;22;38421;-77
2023/01/15 00:57:00;;;;;;;12.47;2.60;;;8.30;99.90;;;;;;6307607;22;38219;-78
2023/01/15 00:59:26;;;;;;;24.30;3.37;;;8.30;99.90;;;;;;6307162;22;47230;-78
2023/01/15 01:01:53;;;;;;;14.23;2.13;;;8.30;99.90;;;;;;6307437;22;37245;-78
2023/01/15 01:04:19;;;;;;;12.40;2.27;;;8.30;99.90;;;;;;6309962;22;37969;-78
2023/01/15 01:06:45;;;;;;;21.43;2.30;;;8.30;99.90;;;;;;6312239;22;37638;-79
2023/01/15 01:09:15;;;;;;;14.63;2.10;;;8.30;99.90;;;;;;6310027;22;38503;-78
2023/01/15 01:11:41;;;;;;;14.77;2.70;;;8.30;99.90;;;;;;6309591;22;37222;-78
2023/01/15 01:14:09;;;;;;;20.00;2.43;;;8.40;99.90;;;;;;6307511;22;37822;-78
2023/01/15 01:16:37;;;;;;;16.13;3.53;;;8.40;99.90;;;;;;6309602;22;37176;-78
2023/01/15 01:19:19;;;;;;;18.10;2.00;;;8.40;99.90;;;;;;6310725;22;38294;-78
2023/01/15 01:21:46;;;;;;;13.43;2.70;;;8.40;99.90;;;;;;6311136;22;36973;-79
2023/01/15 01:24:15;;;;;;;12.07;1.80;;;8.40;99.90;;;;;;6310168;22;37844;-78
2023/01/15 01:26:45;;;;;;;13.50;2.33;;;8.40;99.90;;;;;;6309370;22;38182;-78
2023/01/15 01:29:19;;;;;;;20.37;3.10;;;8.40;99.90;;;;;;6304167;22;36899;-78
2023/01/15 01:31:46;;;;;;;7.60;1.80;;;8.40;99.90;;;;;;6306698;22;36191;-79
2023/01/15 01:34:13;;;;;;;13.43;2.20;;;8.40;99.90;;;;;;6306041;22;38045;-78
2023/01/15 01:36:41;;;;;;;10.27;1.90;;;8.30;99.90;;;;;;6300220;22;37215;-78
2023/01/15 01:39:13;;;;;;;14.90;2.90;;;8.30;99.90;;;;;;6302450;22;37507;-78
2023/01/15 01:41:39;;;;;;;13.43;2.17;;;8.30;99.90;;;;;;6307532;22;37976;-78
2023/01/15 01:44:07;;;;;;;13.77;2.10;;;8.30;99.90;;;;;;6305094;22;39160;-78
2023/01/15 01:46:35;;;;;;;14.10;2.57;;;8.30;99.90;;;;;;6310955;22;38791;-78
2023/01/15 01:49:09;;;;;;;14.83;2.23;;;8.30;99.90;;;;;;6300206;22;38150;-77
2023/01/15 01:51:57;;;;;;;14.33;2.07;;;8.30;99.90;;;;;;6298940;22;37132;-78
2023/01/15 01:54:25;;;;;;;14.80;1.87;;;8.30;99.90;;;;;;6304182;22;38012;-77
2023/01/15 01:56:52;;;;;;;15.97;2.17;;;8.30;99.90;;;;;;6310648;22;38215;-77
2023/01/15 01:59:20;;;;;;;16.67;2.93;;;8.30;99.90;;;;;;6309870;22;37759;-77
2023/01/15 02:04:18;;;;;;;12.27;2.57;;;8.30;99.90;;;;;;6293990;22;20878;-77
2023/01/15 02:06:44;;;;;;;15.57;2.53;;;8.30;99.90;;;;;;6301876;22;37826;-77
2023/01/15 02:09:11;;;;;;;12.27;2.10;;;8.30;99.90;;;;;;6301774;22;36921;-78
2023/01/15 02:11:37;;;;;;;8.10;1.90;;;8.20;99.90;;;;;;6301843;22;36115;-77
2023/01/15 02:14:14;;;;;;;10.43;2.30;;;8.20;99.90;;;;;;6300163;22;37869;-77
2023/01/15 02:16:50;;;;;;;11.50;1.70;;;8.20;99.90;;;;;;6300815;22;37297;-78
2023/01/15 02:19:38;;;;;;;10.30;1.80;;;8.30;99.90;;;;;;6298640;22;38397;-77
2023/01/15 02:22:42;;;;;;;14.13;2.07;;;8.30;99.90;;;;;;6301115;22;37009;-77
2023/01/15 02:25:33;;;;;;;10.93;2.30;;;8.30;99.90;;;;;;6290198;22;38925;-76
2023/01/15 02:28:24;;;;;;;16.90;1.80;;;8.30;99.90;;;;;;6301965;22;37257;-77
2023/01/15 02:31:17;;;;;;;9.40;1.73;;;8.30;99.90;;;;;;6287393;22;47490;-77
2023/01/15 02:34:02;;;;;;;12.88;2.55;;;8.30;99.90;;;;;;6296870;22;48962;-77
2023/01/15 02:36:32;;;;;;;14.37;2.33;;;8.30;99.90;;;;;;6309908;22;47152;-77
2023/01/15 02:39:04;;;;;;;11.03;1.80;;;8.30;99.90;;;;;;6310234;22;37291;-77
2023/01/15 02:41:50;;;;;;;16.87;2.67;;;8.30;99.90;;;;;;6302738;22;48913;-77
2023/01/15 02:44:19;;;;;;;16.33;2.17;;;8.20;99.90;;;;;;6305488;22;36426;-78
2023/01/15 02:46:47;;;;;;;14.73;1.83;;;8.30;99.90;;;;;;6305689;22;39126;-78
2023/01/15 02:49:18;;;;;;;15.90;1.67;;;8.30;99.90;;;;;;6304884;22;37458;-77
2023/01/15 02:51:55;;;;;;;13.73;2.00;;;8.30;99.90;;;;;;6307638;22;37159;-78
2023/01/15 02:54:25;;;;;;;14.23;2.50;;;8.30;99.90;;;;;;6304397;22;36126;-77
2023/01/15 02:56:53;;;;;;;13.20;2.53;;;8.30;99.90;;;;;;6308206;22;38377;-77
2023/01/15 02:59:26;;;;;;;12.53;1.67;;;8.30;99.90;;;;;;6304048;22;38611;-77
2023/01/15 03:01:55;;;;;;;;;;;8.30;99.90;;;;;;6305683;22;36656;-77
2023/01/15 03:04:51;;;;;;;15.07;1.77;;;8.20;99.90;;;;;;6305731;22;37305;-77
2023/01/15 03:07:21;;;;;;;11.70;1.80;;;8.20;99.90;;;;;;6302315;22;39030;-77
2023/01/15 03:09:49;;;;;;;18.97;2.17;;;8.10;99.90;;;;;;6307131;22;38463;-78
2023/01/15 03:12:28;;;;;;;15.30;2.67;;;8.00;99.90;;;;;;6303438;22;37337;-77
2023/01/15 03:14:54;;;;;;;11.20;2.30;;;8.10;99.90;;;;;;6298890;22;38649;-77
2023/01/15 03:17:46;;;;;;;20.73;3.00;;;8.00;99.90;;;;;;6303437;22;39691;-77
2023/01/15 03:20:19;;;;;;;13.13;2.07;;;8.00;99.90;;;;;;6307615;22;39971;-76
2023/01/15 03:22:50;;;;;;;13.70;2.00;;;8.10;99.90;;;;;;6309308;22;38536;-78
2023/01/15 03:25:28;;;;;;;15.27;2.20;;;8.10;99.90;;;;;;6305890;22;36712;-79
2023/01/15 03:28:00;;;;;;;16.23;2.40;;;8.00;99.90;;;;;;6309480;22;37840;-79
2023/01/15 03:30:26;;;;;;;17.58;2.70;;;8.10;99.90;;;;;;6299685;22;37188;-77
2023/01/15 03:32:53;;;;;;;16.47;2.23;;;8.10;99.90;;;;;;6311134;22;38670;-78
2023/01/15 03:35:44;;;;;;;13.40;2.10;;;8.10;99.90;;;;;;6305886;22;35943;-78
2023/01/15 03:38:25;;;;;;;12.57;1.80;;;8.10;99.90;;;;;;6307640;22;37917;-78
2023/01/15 03:41:08;;;;;;;12.10;2.47;;;8.10;99.90;;;;;;6312308;22;39127;-78
2023/01/15 03:44:10;;;;;;;17.13;2.00;;;8.10;99.90;;;;;;6305323;22;48515;-78
2023/01/15 03:46:49;;;;;;;15.47;2.50;;;8.10;99.90;;;;;;6299103;22;47234;-77
2023/01/15 03:49:32;;;;;;;11.73;2.27;;;8.10;99.90;;;;;;6307523;22;39280;-77
2023/01/15 03:52:25;;;;;;;19.73;2.43;;;8.20;99.90;;;;;;6307472;22;38235;-79
2023/01/15 03:55:08;;;;;;;13.50;2.00;;;8.10;99.90;;;;;;6299036;22;46855;-77
2023/01/15 03:57:56;;;;;;;17.43;1.70;;;8.10;99.90;;;;;;6302743;22;47164;-77
2023/01/15 04:00:37;;;;;;;15.43;2.80;;;8.10;99.90;;;;;;6305095;22;37901;-78
2023/01/15 04:03:07;;;;;;;23.40;4.00;;;8.10;99.90;;;;;;6306252;22;38449;-78
2023/01/15 04:05:35;;;;;;;10.83;1.97;;;8.10;99.90;;;;;;6307954;22;38256;-78
2023/01/15 04:08:03;;;;;;;16.87;2.10;;;8.10;99.90;;;;;;6310201;22;37258;-80
2023/01/15 04:10:30;;;;;;;9.23;1.70;;;8.10;99.90;;;;;;6307378;22;38465;-79
2023/01/15 04:12:56;;;;;;;15.93;2.13;;;8.10;99.90;;;;;;6313483;22;38595;-79
2023/01/15 04:15:22;;;;;;;17.13;2.63;;;8.10;99.90;;;;;;6314588;22;36743;-80
2023/01/15 04:17:49;;;;;;;19.57;2.13;;;8.10;99.90;;;;;;6318764;22;37074;-79
2023/01/15 04:20:17;;;;;;;14.77;2.33;;;8.10;99.90;;;;;;6310873;22;38547;-79
2023/01/15 04:22:43;;;;;;;17.23;2.50;;;8.10;99.90;;;;;;6313771;22;38383;-77
2023/01/15 04:25:10;;;;;;;10.83;1.57;;;8.10;99.90;;;;;;6307956;22;37084;-79
2023/01/15 04:27:37;;;;;;;17.57;2.50;;;8.00;99.90;;;;;;6312668;22;35989;-78
2023/01/15 04:30:03;;;;;;;9.10;2.10;;;8.00;99.90;;;;;;6311893;22;38593;-79
2023/01/15 04:32:29;;;;;;;11.67;1.90;;;8.00;99.90;;;;;;6309399;22;37282;-78
2023/01/15 04:34:55;;;;;;;14.77;1.93;;;8.10;99.90;;;;;;6315594;22;37788;-79
2023/01/15 04:37:21;;;;;;;11.63;1.90;;;8.10;99.90;;;;;;6310238;22;35679;-78
2023/01/15 04:39:47;;;;;;;16.20;1.93;;;8.10;99.90;;;;;;6305615;22;37752;-79
2023/01/15 04:44:58;;;;;;;18.00;2.40;;;8.00;99.90;;;;;;6315427;22;38957;-79
2023/01/15 04:47:24;;;;;;;21.03;3.00;;;8.00;99.90;;;;;;6308828;22;35896;-79
2023/01/15 04:49:50;;;;;;;13.50;2.30;;;8.00;99.90;;;;;;6308692;22;37990;-79
2023/01/15 04:52:17;;;;;;;12.90;2.40;;;8.00;99.90;;;;;;6313614;22;38278;-79
2023/01/15 04:54:43;;;;;;;12.27;2.23;;;8.00;99.90;;;;;;6312021;22;37084;-78
2023/01/15 04:57:10;;;;;;;13.63;1.60;;;8.00;99.90;;;;;;6310382;22;36033;-78
2023/01/15 04:59:37;;;;;;;7.77;1.60;;;7.90;99.90;;;;;;6315382;22;38631;-78
2023/01/15 05:02:03;;;;;;;17.03;2.10;;;7.90;99.90;;;;;;6309810;22;37398;-79
2023/01/15 05:04:29;;;;;;;10.13;1.73;;;7.90;99.90;;;;;;6317611;22;38312;-79
2023/01/15 05:06:55;;;;;;;14.30;2.00;;;7.90;99.90;;;;;;6313359;22;37264;-79
2023/01/15 05:09:21;;;;;;;14.40;2.27;;;7.90;99.90;;;;;;6310648;22;37414;-78
2023/01/15 05:11:47;;;;;;;9.83;2.17;;;7.90;99.90;;;;;;6313017;22;38384;-79
2023/01/15 05:14:13;;;;;;;12.07;1.90;;;7.90;99.90;;;;;;6311635;22;38642;-79
2023/01/15 05:16:39;;;;;;;12.73;2.00;;;7.90;99.90;;;;;;6313502;22;36322;-78
2023/01/15 05:19:06;;;;;;;12.67;2.60;;;7.80;99.90;;;;;;6308274;22;37662;-79
2023/01/15 05:21:35;;;;;;;14.97;2.00;;;7.80;99.90;;;;;;6305484;22;37058;-78
2023/01/15 05:24:04;;;;;;;9.77;2.27;;;7.80;99.90;;;;;;6308376;22;38114;-78
2023/01/15 05:26:31;;;;;;;9.47;1.60;;;7.70;99.90;;;;;;6304970;22;47996;-79
2023/01/15 05:28:58;;;;;;;17.27;1.70;;;7.70;99.90;;;;;;6304015;22;37534;-78
2023/01/15 05:31:25;;;;;;;10.57;2.10;;;7.70;99.90;;;;;;6310783;22;38842;-80
2023/01/15 05:33:53;;;;;;;12.53;1.70;;;7.70;99.90;;;;;;6313295;22;37935;-78
2023/01/15 05:36:22;;;;;;;10.70;1.67;;;7.70;99.90;;;;;;6310987;22;35874;-79
2023/01/15 05:38:48;;;;;;;15.37;2.80;;;7.70;99.90;;;;;;6306662;22;38788;-78
2023/01/15 05:44:05;;;;;;;16.27;2.27;;;7.70;99.90;;;;;;6312211;22;39092;-79
2023/01/15 05:46:33;;;;;;;14.10;1.83;;;7.70;99.90;;;;;;6309646;22;38202;-79
2023/01/15 05:49:06;;;;;;;10.70;2.03;;;7.60;99.90;;;;;;6310736;22;37731;-79
2023/01/15 05:51:34;;;;;;;15.38;1.58;;;7.60;99.90;;;;;;6307045;22;48910;-78
2023/01/15 05:54:01;;;;;;;8.57;1.70;;;7.60;99.90;;;;;;6309274;22;37362;-78
2023/01/15 05:56:27;;;;;;;10.77;1.73;;;7.60;99.90;;;;;;6339424;22;46883;-79
2023/01/15 05:58:53;;;;;;;12.57;2.10;;;7.70;99.90;;;;;;6321148;22;38659;-78
2023/01/15 06:01:20;;;;;;;9.63;1.93;;;7.70;99.90;;;;;;6311885;22;38715;-79
2023/01/15 06:03:47;;;;;;;13.97;2.20;;;7.70;99.90;;;;;;6312737;22;38248;-78
2023/01/15 06:06:16;;;;;;;12.30;1.87;;;7.70;99.90;;;;;;6311610;22;36258;-78
2023/01/15 06:08:43;;;;;;;12.80;2.27;;;7.60;99.90;;;;;;6315900;22;39407;-79
2023/01/15 06:11:10;;;;;;;12.83;1.67;;;7.50;99.90;;;;;;6309375;22;38611;-78
2023/01/15 06:13:38;;;;;;;10.77;1.57;;;7.50;99.90;;;;;;6314912;22;38097;-78
2023/01/15 06:16:05;;;;;;;10.67;2.13;;;7.40;99.90;;;;;;6312247;22;35990;-79
2023/01/15 06:18:32;;;;;;;11.30;1.60;;;7.40;99.90;;;;;;6316662;22;38994;-78
2023/01/15 06:21:03;;;;;;;12.20;2.20;;;7.40;99.90;;;;;;6316998;22;38592;-78
2023/01/15 06:23:30;;;;;;;14.57;1.80;;;7.50;99.90;;;;;;6307322;22;47232;-78
2023/01/15 06:26:00;;;;;;;14.77;1.80;;;7.40;99.90;;;;;;6320246;22;36822;-80
2023/01/15 06:28:26;;;;;;;7.47;1.50;;;7.50;99.90;;;;;;6319166;22;47886;-78
2023/01/15 06:30:53;;;;;;;13.40;1.53;;;7.50;99.90;;;;;;6318512;22;38119;-78
2023/01/15 06:33:19;;;;;;;12.63;1.53;;;7.50;99.90;;;;;;6312892;22;37271;-78
2023/01/15 06:35:45;;;;;;;11.40;1.60;;;7.50;99.90;;;;;;6316417;22;35842;-79
2023/01/15 06:38:11;;;;;;;9.47;1.43;;;7.40;99.90;;;;;;6313000;22;37639;-79
2023/01/15 06:40:37;;;;;;;11.67;2.07;;;7.30;99.90;;;;;;6315955;22;37967;-78
2023/01/15 06:48:33;;;;;;;7.33;1.40;;;7.30;99.90;;;;;;6309707;22;49738;-79
2023/01/15 06:50:59;;;;;;;11.47;1.90;;;7.30;99.90;;;;;;6313255;22;37569;-79
2023/01/15 06:53:25;;;;;;;9.00;1.43;;;7.30;99.90;;;;;;6306825;22;36946;-79
2023/01/15 06:55:52;;;;;;;10.73;1.50;;;7.30;99.90;;;;;;6311923;22;38678;-80
2023/01/15 06:58:21;;;;;;;13.17;2.03;;;7.40;99.90;;;;;;6313354;22;38960;-80
2023/01/15 07:00:54;;;;;;;11.83;1.80;;;7.40;99.90;;;;;;6304171;22;38732;-79
2023/01/15 07:03:21;;;;;;;8.13;1.53;;;7.40;99.90;;;;;;6306285;22;38038;-79
2023/01/15 07:05:48;;;;;;;11.87;1.27;;;7.30;99.90;;;;;;6306401;22;37010;-78
2023/01/15 07:08:14;;;;;;;9.63;1.83;;;7.30;99.90;;;;;;6299880;22;39948;-79
2023/01/15 07:10:40;;;;;;;13.60;1.93;;;7.30;99.90;;;;;;6300711;22;37968;-79
2023/01/15 07:13:08;;;;;;;11.77;1.60;;;7.20;99.90;;;;;;6298369;22;37314;-79
2023/01/15 07:15:37;;;;;;;14.50;3.27;;;7.20;99.90;;;;;;6303338;22;35981;-79
2023/01/15 07:18:04;;;;;;;16.13;3.50;;;7.20;99.90;;;;;;6302485;22;38554;-79
2023/01/15 07:20:30;;;;;;;15.50;1.87;;;7.20;99.90;;;;;;6301018;22;37451;-78
2023/01/15 07:22:56;;;;;;;18.73;2.37;;;7.10;99.90;;;;;;6304452;22;38104;-78
2023/01/15 07:25:22;;;;;;;13.63;2.37;;;7.10;99.90;;;;;;6303005;22;37357;-77
2023/01/15 07:27:48;;;;;;;16.30;2.23;;;7.10;99.90;;;;;;6302930;22;37792;-78
2023/01/15 07:30:14;;;;;;;11.83;1.60;;;7.20;99.90;;;;;;6300742;22;39159;-78
2023/01/15 07:32:41;;;;;;;8.60;1.70;;;7.20;99.90;;;;;;6307742;22;38518;-79
2023/01/15 07:35:08;;;;;;;12.43;2.37;;;7.20;99.90;;;;;;6302525;22;36072;-78
2023/01/15 07:37:35;;;;;;;18.27;2.23;;;7.20;99.90;;;;;;6306838;22;38624;-79
2023/01/15 07:40:01;;;;;;;20.07;2.37;;;7.30;99.90;;;;;;6308487;22;37732;-78
2023/01/15 07:50:40;;;;;;;14.50;2.60;;;7.10;99.90;;;;;;6302818;22;50740;-78
2023/01/15 07:53:07;;;;;;;14.47;2.50;;;7.20;99.90;;;;;;6303007;22;36699;-78
2023/01/15 07:55:35;;;;;;;13.57;2.43;;;7.20;99.90;;;;;;6303928;22;36138;-78
2023/01/15 07:58:02;;;;;;;21.83;2.93;;;7.20;99.90;;;;;;6303095;22;38167;-78
2023/01/15 08:00:28;;;;;;;15.33;2.10;;;7.20;99.90;;;;;;6293512;22;47457;-78
2023/01/15 08:02:54;;;;;;;14.87;2.20;;;7.20;99.90;;;;;;6303975;22;38042;-78
2023/01/15 08:05:20;;;;;;;11.57;2.00;;;7.20;99.90;;;;;;6300295;22;36759;-79
2023/01/15 08:07:47;;;;;;;11.13;1.93;;;7.20;99.90;;;;;;6302404;22;38628;-78
2023/01/15 08:10:14;;;;;;;14.63;2.27;;;7.30;99.90;;;;;;6300265;22;37306;-78
2023/01/15 08:15:25;;;;;;;18.33;2.43;;;7.40;99.90;;;;;;6304047;22;38435;-77
2023/01/15 08:17:52;;;;;;;16.07;2.60;;;7.50;99.90;;;;;;6301965;22;38641;-78
2023/01/15 08:20:24;;;;;;;11.77;2.53;;;7.60;99.90;;;;;;6305054;22;38840;-79
2023/01/15 08:22:51;;;;;;;24.13;2.88;;;7.60;99.90;;;;;;6309233;22;39138;-78
2023/01/15 08:25:23;;;;;;;15.87;2.33;;;7.70;99.90;;;;;;6295934;22;36025;-78
2023/01/15 08:27:50;;;;;;;10.93;2.28;;;7.70;99.90;;;;;;6318595;22;37791;-80
2023/01/15 08:30:21;;;;;;;16.63;2.23;;;7.70;99.90;;;;;;6280254;22;37202;-79
2023/01/15 08:32:47;;;;;;;15.83;2.20;;;7.80;99.90;;;;;;6319778;22;38161;-78
2023/01/15 08:35:13;;;;;;;15.33;2.57;;;7.90;99.90;;;;;;6308618;22;35720;-79
2023/01/15 08:37:41;;;;;;;10.27;1.93;;;7.90;99.90;;;;;;6309066;22;38871;-79
2023/01/15 08:40:09;;;;;;;19.27;2.70;;;7.90;99.90;;;;;;6315587;22;37207;-80
2023/01/15 08:42:35;;;;;;;9.13;1.90;;;7.90;99.90;;;;;;6316292;22;39159;-79
2023/01/15 08:45:01;;;;;;;8.83;2.23;;;7.90;99.90;;;;;;6310061;22;37423;-78
2023/01/15 08:47:28;;;;;;;19.67;2.57;;;8.00;99.90;;;;;;6311540;22;47174;-78
2023/01/15 08:49:54;;;;;;;15.03;2.13;;;8.10;99.90;;;;;;6323220;22;37371;-80
2023/01/15 08:52:20;;;;;;;16.53;3.10;;;8.20;99.90;;;;;;6314247;22;37373;-78
2023/01/15 08:54:46;;;;;;;14.13;2.40;;;8.30;99.90;;;;;;6309225;22;36836;-79
2023/01/15 08:57:12;;;;;;;19.70;2.20;;;8.20;99.90;;;;;;6315482;22;38346;-78
2023/01/15 08:59:41;;;;;;;11.73;1.93;;;8.20;99.90;;;;;;6314537;22;37512;-79
2023/01/15 09:02:11;;;;;;;10.90;1.93;;;8.20;99.90;;;;;;6308766;22;36973;-79
2023/01/15 09:04:38;;;;;;;16.77;2.80;;;8.20;99.90;;;;;;6307490;22;36360;-78
2023/01/15 09:07:04;;;;;;;9.47;1.83;;;8.30;99.90;;;;;;6304579;22;38968;-78
2023/01/15 09:09:30;;;;;;;14.57;2.93;;;8.30;99.90;;;;;;6307395;22;37244;-77
2023/01/15 09:11:56;;;;;;;13.00;1.73;;;8.30;99.90;;;;;;6306492;22;37084;-78
2023/01/15 09:14:22;;;;;;;15.47;2.97;;;8.20;99.90;;;;;;6314700;22;36120;-78
2023/01/15 09:16:48;;;;;;;18.03;2.33;;;8.30;99.90;;;;;;6317016;22;37896;-78
2023/01/15 09:19:14;;;;;;;9.40;2.57;;;8.40;99.90;;;;;;6315557;22;39224;-79
2023/01/15 09:21:40;;;;;;;16.43;2.23;;;8.40;99.90;;;;;;6315313;22;38498;-77
2023/01/15 09:24:06;;;;;;;12.47;1.97;;;8.30;99.90;;;;;;6309666;22;35921;-79
2023/01/15 09:26:35;;;;;;;16.17;2.47;;;8.30;99.90;;;;;;6320824;22;38089;-78
2023/01/15 09:29:03;;;;;;;16.83;1.77;;;8.30;99.90;;;;;;6318476;22;38845;-78
2023/01/15 09:31:30;;;;;;;17.67;3.07;;;8.40;99.90;;;;;;6312090;22;36999;-78
2023/01/15 09:33:58;;;;;;;11.50;2.37;;;8.50;99.90;;;;;;6307508;22;36622;-79
2023/01/15 09:36:32;;;;;;;15.43;2.70;;;8.50;99.90;;;;;;6321069;22;39206;-78
2023/01/15 09:39:36;;;;;;;19.30;2.73;;;8.50;99.90;;;;;;6321497;22;38407;-79
2023/01/15 09:42:45;;;;;;;13.23;2.30;;;8.40;99.90;;;;;;6282214;22;48732;-79
2023/01/15 09:45:29;;;;;;;13.90;2.37;;;8.40;99.90;;;;;;6297652;22;50380;-79
2023/01/15 09:48:28;;;;;;;13.93;2.03;;;8.50;99.90;;;;;;6315412;22;38676;-79
2023/01/15 09:51:13;;;;;;;14.27;2.93;;;8.40;99.90;;;;;;6303737;22;49547;-78
2023/01/15 09:54:04;;;;;;;17.13;2.40;;;8.20;99.90;;;;;;6320727;22;48613;-79
2023/01/15 09:56:33;;;;;;;11.80;2.70;;;8.20;99.90;;;;;;6322174;22;48669;-78
2023/01/15 09:59:11;;;;;;;16.53;2.83;;;8.10;99.90;;;;;;6324130;22;38675;-79
2023/01/15 10:01:37;;;;;;;15.90;3.07;;;8.20;99.90;;;;;;6330010;22;48164;-79
2023/01/15 10:07:17;;;;;;;18.47;4.13;;;8.30;99.90;;;;;;6297794;22;20011;-80
2023/01/15 10:10:03;;;;;;;15.53;2.00;;;8.40;99.90;;;;;;6257031;22;50090;-78
2023/01/15 10:12:43;;;;;;;15.50;2.20;;;8.50;99.90;;;;;;6330679;22;41326;-78
2023/01/15 10:15:40;;;;;;;23.30;3.90;;;8.50;99.90;;;;;;6324127;22;39282;-78
2023/01/15 10:18:21;;;;;;;14.90;2.37;;;8.60;99.90;;;;;;6321476;22;38748;-78
2023/01/15 10:21:17;;;;;;;13.87;1.97;;;8.70;99.90;;;;;;6327506;22;37461;-77
2023/01/15 10:24:02;;;;;;;16.20;2.60;;;8.80;99.90;;;;;;6313116;22;46900;-76
2023/01/15 10:26:43;;;;;;;11.10;2.13;;;8.80;99.90;;;;;;6301189;22;48669;-78
2023/01/15 10:29:42;;;;;;;16.27;2.80;;;8.90;99.90;;;;;;6301912;22;36275;-78
2023/01/15 10:32:53;;;;;;;17.77;2.83;;;8.70;99.90;;;;;;6308455;22;37940;-78
2023/01/15 10:36:01;;;;;;;18.23;2.40;;;8.50;99.90;;;;;;6328471;22;38522;-79
2023/01/15 10:38:53;;;;;;;8.70;2.10;;;8.40;99.90;;;;;;6334239;22;48482;-79
2023/01/15 10:41:59;;;;;;;13.10;1.87;;;8.50;99.90;;;;;;6270999;22;36619;-79
2023/01/15 10:44:49;;;;;;;16.63;2.93;;;8.40;99.90;;;;;;6269773;22;38981;-80
2023/01/15 10:47:20;;;;;;;16.30;2.87;;;8.30;99.90;;;;;;6241950;22;37581;-79
2023/01/15 10:49:48;;;;;;;10.57;2.10;;;8.30;99.90;;;;;;6255677;22;37881;-79
2023/01/15 10:52:30;;;;;;;21.67;2.90;;;8.30;99.90;;;;;;6271459;22;37101;-78
2023/01/15 10:55:09;;;;;;;14.05;2.67;;;8.20;99.90;;;;;;6210381;23;38458;-78
2023/01/15 10:58:10;;;;;;;15.70;2.27;;;8.10;99.90;;;;;;6219693;22;47385;-80
2023/01/15 11:00:45;;;;;;;19.07;3.77;;;8.00;99.90;;;;;;6207084;23;47526;-78
2023/01/15 11:03:23;;;;;;;15.03;2.63;;;8.10;99.90;;;;;;6214855;22;39277;-79
2023/01/15 11:05:55;;;;;;;12.07;2.13;;;8.10;99.90;;;;;;6209138;23;40454;-79
2023/01/15 11:08:34;;;;;;;22.08;2.65;;;8.20;99.90;;;;;;6224793;22;38027;-80
2023/01/15 11:19:35;;;;;;;18.33;3.27;;;8.20;99.90;;;;;;6218264;22;38704;-79
2023/01/15 11:20:55;;;;;;;14.27;3.20;;;8.40;99.90;;;;;;6332481;22;40312;-78
2023/01/15 11:23:22;;;;;;;13.40;2.53;;;8.60;99.90;;;;;;6299492;22;37087;-78
2023/01/15 11:25:49;;;;;;;13.27;2.30;;;8.80;99.90;;;;;;6317706;22;38501;-79
2023/01/15 11:28:16;;;;;;;14.13;2.30;;;8.80;99.90;;;;;;6320637;22;39631;-79
2023/01/15 11:30:43;;;;;;;17.17;2.33;;;8.90;99.90;;;;;;6321361;22;38334;-78
2023/01/15 11:33:36;;;;;;;15.07;2.10;;;8.80;99.90;;;;;;6323253;22;40583;-79
2023/01/15 11:36:17;;;;;;;16.83;2.05;;;8.60;99.90;;;;;;6316270;22;37514;-77
2023/01/15 11:38:46;;;;;;;12.27;2.47;;;8.40;99.90;;;;;;6324360;22;38102;-79
2023/01/15 11:52:48;;;;;;;13.20;1.93;;;7.60;99.90;;;;;;6301127;22;49120;-79
2023/01/15 11:55:23;;;;;;;17.63;2.20;;;7.60;99.90;;;;;;6300058;22;37942;-80
2023/01/15 11:57:50;;;;;;;20.40;2.67;;;7.50;99.90;;;;;;6302000;22;37469;-79
2023/01/15 12:00:48;;;;;;;19.27;2.57;;;7.50;99.90;;;;;;6298641;22;38808;-79
2023/01/15 12:03:18;;;;;;;10.93;2.90;;;7.30;99.90;;;;;;6298922;22;38679;-78
2023/01/15 12:06:04;;;;;;;14.97;2.00;;;7.30;99.90;;;;;;6302943;22;39135;-79
2023/01/15 12:08:50;;;;;;;13.57;2.30;;;7.40;99.90;;;;;;6304970;22;48521;-79
2023/01/15 12:11:41;;;;;;;17.27;2.90;;;7.50;99.90;;;;;;6297458;22;38182;-79
2023/01/15 12:14:43;;;;;;;20.50;2.83;;;7.70;99.90;;;;;;6319568;22;39719;-80
2023/01/15 12:17:27;;;;;;;14.00;2.80;;;7.80;99.90;;;;;;6321427;22;37441;-80
2023/01/15 12:20:17;;;;;;;17.27;2.50;;;7.90;99.90;;;;;;6311055;22;36373;-79
2023/01/15 12:23:12;;;;;;;9.97;1.90;;;7.90;99.90;;;;;;6327986;22;49036;-79
2023/01/15 12:26:26;;;;;;;15.27;2.87;;;7.90;99.90;;;;;;6322362;22;47254;-80
2023/01/15 12:29:09;;;;;;;16.80;2.03;;;7.90;99.90;;;;;;6295726;22;50200;-79
2023/01/15 12:32:10;;;;;;;15.80;3.30;;;7.90;99.90;;;;;;6286531;22;47269;-79
2023/01/15 12:34:51;;;;;;;18.07;2.60;;;8.00;99.90;;;;;;6354490;22;48891;-78
2023/01/15 12:37:25;;;;;;;11.67;1.90;;;8.00;99.90;;;;;;6326943;22;37255;-78
2023/01/15 12:40:05;;;;;;;15.33;3.10;;;8.10;99.90;;;;;;6335452;22;38568;-79
2023/01/15 12:45:27;;;;;;;23.13;3.40;;;8.30;99.90;;;;;;6357039;22;40610;-79
2023/01/15 12:48:11;;;;;;;17.90;2.77;;;8.50;99.90;;;;;;6329555;22;37576;-78
2023/01/15 12:50:50;;;;;;;18.10;2.53;;;8.60;99.90;;;;;;6312978;22;47247;-80
2023/01/15 12:53:39;;;;;;;19.40;2.37;;;8.60;99.90;;;;;;6354940;22;38728;-79
2023/01/15 12:56:26;;;;;;;16.33;2.83;;;8.70;99.90;;;;;;6323968;22;38871;-79
2023/01/15 12:59:06;;;;;;;15.80;2.13;;;8.80;99.90;;;;;;6323405;22;38477;-78
2023/01/15 13:01:57;;;;;;;12.33;2.00;;;8.90;99.90;;;;;;6257870;22;47626;-80
2023/01/15 13:04:48;;;;;;;13.37;2.30;;;9.00;99.90;;;;;;6315082;22;36585;-78
2023/01/15 13:07:42;;;;;;;13.53;2.30;;;9.00;99.90;;;;;;6333984;22;41993;-77
2023/01/15 13:10:21;;;;;;;19.33;2.67;;;9.20;99.90;;;;;;6301027;22;37797;-76
2023/01/15 13:12:47;;;;;;;15.63;2.93;;;9.30;99.90;;;;;;6319434;22;36658;-79
2023/01/15 13:15:18;;;;;;;14.77;2.30;;;9.30;99.90;;;;;;6327132;22;37430;-79
2023/01/15 13:18:13;;;;;;;11.37;2.27;;;9.30;99.90;;;;;;6329840;22;39133;-78
2023/01/15 13:20:48;;;;;;;21.27;2.40;;;9.20;99.90;;;;;;6317962;22;47386;-78
2023/01/15 13:23:35;;;;;;;11.70;1.90;;;9.10;99.90;;;;;;6326593;22;37445;-79
2023/01/15 13:26:22;;;;;;;13.03;2.83;;;9.10;99.90;;;;;;6330983;22;38120;-79
2023/01/15 13:29:16;;;;;;;10.97;2.40;;;9.00;99.90;;;;;;6326588;22;48411;-79
2023/01/15 13:32:05;;;;;;;12.03;2.43;;;9.00;99.90;;;;;;6312516;22;47626;-78
2023/01/15 13:34:53;;;;;;;18.57;2.80;;;8.90;99.90;;;;;;6320679;22;47489;-79
2023/01/15 13:37:53;;;;;;;16.50;2.80;;;8.90;99.90;;;;;;6318621;22;37617;-79
2023/01/15 13:40:33;;;;;;;17.27;2.90;;;8.90;99.90;;;;;;6318574;22;39007;-79
2023/01/15 13:43:01;;;;;;;17.70;2.93;;;9.10;99.90;;;;;;6319456;22;39306;-78
2023/01/15 13:45:48;;;;;;;27.83;4.17;;;9.20;99.90;;;;;;6311012;22;46929;-79
2023/01/15 13:48:22;;;;;;;17.30;2.90;;;9.20;99.90;;;;;;6321967;22;36741;-79
2023/01/15 13:50:56;;;;;;;10.10;2.85;;;9.10;99.90;;;;;;6319277;22;38794;-79
2023/01/15 13:53:32;;;;;;;19.63;3.63;;;9.10;99.90;;;;;;6291140;22;37734;-79
2023/01/15 13:56:04;;;;;;;13.50;2.77;;;9.10;99.90;;;;;;6316675;22;38702;-78
2023/01/15 13:58:37;;;;;;;12.15;2.03;;;9.20;99.90;;;;;;6300538;22;47220;-79
2023/01/15 14:01:25;;;;;;;12.00;3.17;;;9.20;99.90;;;;;;6315234;22;38947;-77
2023/01/15 14:04:05;;;;;;;13.10;2.87;;;9.40;99.90;;;;;;6318609;22;37804;-78
2023/01/15 14:06:49;;;;;;;17.83;3.10;;;9.40;99.90;;;;;;6315153;22;47456;-77
2023/01/15 14:09:21;;;;;;;15.10;3.00;;;9.50;99.90;;;;;;6320964;22;38330;-79
2023/01/15 14:12:14;;;;;;;12.40;2.17;;;9.50;99.90;;;;;;6318135;22;38814;-78